sensor_id;sensor_type;location;lat;lon;timestamp;pressure;altitude;pressure_sealevel;temperature;humidity
40954;BME280;26686;50.130;8.710;2024-01-16T00:04:14;99416.88;;;2.55;67.21
40954;BME280;26686;50.130;8.710;2024-01-16T00:09:16;99417.78;;;2.40;67.44
40954;BME280;26686;50.130;8.710;2024-01-16T00:14:18;99418.84;;;2.37;67.59
40954;BME280;26686;50.130;8.710;2024-01-16T00:19:20;99429.91;;;2.42;67.47
40954;BME280;26686;50.130;8.710;2024-01-16T00:24:22;99428.09;;;2.43;67.64
40954;BME280;26686;50.130;8.710;2024-01-16T00:29:23;99436.66;;;2.46;67.58
40954;BME280;26686;50.130;8.710;2024-01-16T00:34:25;99438.63;;;2.43;68.50
40954;BME280;26686;50.130;8.710;2024-01-16T00:39:26;99448.66;;;2.36;69.13
40954;BME280;26686;50.130;8.710;2024-01-16T00:44:28;99401.69;;;2.01;69.70
40954;BME280;26686;50.130;8.710;2024-01-16T00:49:29;99456.81;;;2.32;70.01
40954;BME280;26686;50.130;8.710;2024-01-16T00:54:31;99441.78;;;2.19;69.64
40954;BME280;26686;50.130;8.710;2024-01-16T00:59:33;99452.00;;;2.24;69.43
40954;BME280;26686;50.130;8.710;2024-01-16T01:04:37;99465.47;;;2.18;69.58
40954;BME280;26686;50.130;8.710;2024-01-16T01:09:38;99461.53;;;2.10;69.54
40954;BME280;26686;50.130;8.710;2024-01-16T01:14:40;99474.31;;;2.17;69.30
40954;BME280;26686;50.130;8.710;2024-01-16T01:19:41;99473.63;;;2.13;69.20
40954;BME280;26686;50.130;8.710;2024-01-16T01:24:43;99480.38;;;2.17;69.34
40954;BME280;26686;50.130;8.710;2024-01-16T01:29:45;99487.06;;;2.23;69.78
40954;BME280;26686;50.130;8.710;2024-01-16T01:34:46;99501.72;;;2.27;69.38
40954;BME280;26686;50.130;8.710;2024-01-16T01:39:47;99499.59;;;2.18;69.89
40954;BME280;26686;50.130;8.710;2024-01-16T01:44:51;99503.09;;;2.18;69.78
40954;BME280;26686;50.130;8.710;2024-01-16T01:49:54;99506.38;;;2.22;70.11
40954;BME280;26686;50.130;8.710;2024-01-16T01:54:55;99497.34;;;2.11;69.72
40954;BME280;26686;50.130;8.710;2024-01-16T01:59:56;99524.56;;;2.10;70.17
40954;BME280;26686;50.130;8.710;2024-01-16T02:04:58;99513.28;;;2.08;70.12
40954;BME280;26686;50.130;8.710;2024-01-16T02:09:59;99525.81;;;2.19;69.83
40954;BME280;26686;50.130;8.710;2024-01-16T02:15:01;99521.69;;;2.29;70.23
40954;BME280;26686;50.130;8.710;2024-01-16T02:20:04;99518.41;;;2.26;69.71
40954;BME280;26686;50.130;8.710;2024-01-16T02:25:09;99518.50;;;2.24;69.38
40954;BME280;26686;50.130;8.710;2024-01-16T02:30:11;99527.34;;;2.07;69.45
40954;BME280;26686;50.130;8.710;2024-01-16T02:35:13;99513.97;;;1.96;70.11
40954;BME280;26686;50.130;8.710;2024-01-16T02:40:14;99532.69;;;2.06;69.76
40954;BME280;26686;50.130;8.710;2024-01-16T02:45:19;99539.34;;;2.11;70.01
40954;BME280;26686;50.130;8.710;2024-01-16T02:50:21;99540.75;;;2.03;70.09
40954;BME280;26686;50.130;8.710;2024-01-16T02:55:22;99555.28;;;2.08;71.62
40954;BME280;26686;50.130;8.710;2024-01-16T03:00:24;99543.28;;;2.04;71.26
40954;BME280;26686;50.130;8.710;2024-01-16T03:05:25;99530.06;;;1.90;71.49
40954;BME280;26686;50.130;8.710;2024-01-16T03:10:27;99532.44;;;1.79;72.49
40954;BME280;26686;50.130;8.710;2024-01-16T03:15:28;99557.84;;;1.94;71.45
40954;BME280;26686;50.130;8.710;2024-01-16T03:20:32;99553.13;;;1.85;70.98
40954;BME280;26686;50.130;8.710;2024-01-16T03:25:34;99558.19;;;1.72;71.73
40954;BME280;26686;50.130;8.710;2024-01-16T03:30:39;99568.09;;;1.83;71.41
40954;BME280;26686;50.130;8.710;2024-01-16T03:35:41;99541.78;;;1.68;71.13
40954;BME280;26686;50.130;8.710;2024-01-16T03:40:43;99556.91;;;1.79;70.80
40954;BME280;26686;50.130;8.710;2024-01-16T03:45:44;99564.28;;;1.72;70.67
40954;BME280;26686;50.130;8.710;2024-01-16T03:50:46;99565.06;;;1.74;70.67
40954;BME280;26686;50.130;8.710;2024-01-16T03:55:49;99539.31;;;1.65;70.50
40954;BME280;26686;50.130;8.710;2024-01-16T04:00:53;99557.25;;;1.89;69.64
40954;BME280;26686;50.130;8.710;2024-01-16T04:05:55;99543.88;;;1.77;69.69
40954;BME280;26686;50.130;8.710;2024-01-16T04:10:56;99546.84;;;1.87;69.53
40954;BME280;26686;50.130;8.710;2024-01-16T04:15:58;99549.03;;;1.95;69.25
40954;BME280;26686;50.130;8.710;2024-01-16T04:21:00;99539.13;;;2.00;68.93
40954;BME280;26686;50.130;8.710;2024-01-16T04:26:01;99549.19;;;2.08;68.95
40954;BME280;26686;50.130;8.710;2024-01-16T04:31:04;99537.44;;;1.99;68.87
40954;BME280;26686;50.130;8.710;2024-01-16T04:36:07;99542.44;;;1.88;69.26
40954;BME280;26686;50.130;8.710;2024-01-16T04:41:08;99559.69;;;1.92;68.95
40954;BME280;26686;50.130;8.710;2024-01-16T04:46:10;99558.69;;;1.79;69.23
40954;BME280;26686;50.130;8.710;2024-01-16T04:51:11;99565.88;;;1.75;69.49
40954;BME280;26686;50.130;8.710;2024-01-16T04:56:13;99552.44;;;1.65;70.14
40954;BME280;26686;50.130;8.710;2024-01-16T05:01:14;99558.84;;;1.75;69.77
40954;BME280;26686;50.130;8.710;2024-01-16T05:06:18;99563.44;;;1.72;70.16
40954;BME280;26686;50.130;8.710;2024-01-16T05:11:19;99559.88;;;1.89;70.03
40954;BME280;26686;50.130;8.710;2024-01-16T05:16:21;99539.22;;;1.83;70.21
40954;BME280;26686;50.130;8.710;2024-01-16T05:21:22;99546.31;;;1.97;71.56
40954;BME280;26686;50.130;8.710;2024-01-16T05:26:24;99524.00;;;1.89;71.43
40954;BME280;26686;50.130;8.710;2024-01-16T05:31:26;99537.19;;;1.88;70.84
40954;BME280;26686;50.130;8.710;2024-01-16T05:36:27;99531.94;;;1.88;70.69
40954;BME280;26686;50.130;8.710;2024-01-16T05:41:35;99511.44;;;1.79;70.66
40954;BME280;26686;50.130;8.710;2024-01-16T05:46:37;99524.56;;;1.79;70.58
40954;BME280;26686;50.130;8.710;2024-01-16T05:51:39;99542.19;;;1.76;70.56
40954;BME280;26686;50.130;8.710;2024-01-16T05:56:41;99542.63;;;1.69;70.30
40954;BME280;26686;50.130;8.710;2024-01-16T06:01:42;99527.22;;;1.63;70.47
40954;BME280;26686;50.130;8.710;2024-01-16T06:06:44;99487.44;;;1.38;70.35
40954;BME280;26686;50.130;8.710;2024-01-16T06:11:48;99504.19;;;1.52;70.34
40954;BME280;26686;50.130;8.710;2024-01-16T06:16:50;99517.72;;;1.60;70.68
40954;BME280;26686;50.130;8.710;2024-01-16T06:21:52;99514.19;;;1.61;70.35
40954;BME280;26686;50.130;8.710;2024-01-16T06:26:54;99501.97;;;1.60;70.60
40954;BME280;26686;50.130;8.710;2024-01-16T06:31:55;99493.53;;;1.55;70.87
40954;BME280;26686;50.130;8.710;2024-01-16T06:36:57;99500.63;;;1.53;70.76
40954;BME280;26686;50.130;8.710;2024-01-16T06:42:00;99483.63;;;1.28;70.82
40954;BME280;26686;50.130;8.710;2024-01-16T06:47:01;99506.53;;;1.24;70.88
40954;BME280;26686;50.130;8.710;2024-01-16T06:52:03;99504.16;;;1.20;70.85
40954;BME280;26686;50.130;8.710;2024-01-16T06:57:05;99507.84;;;1.00;71.78
40954;BME280;26686;50.130;8.710;2024-01-16T07:02:07;99514.56;;;0.88;72.05
40954;BME280;26686;50.130;8.710;2024-01-16T07:07:09;99493.25;;;0.78;72.23
40954;BME280;26686;50.130;8.710;2024-01-16T07:12:11;99520.72;;;0.87;71.92
40954;BME280;26686;50.130;8.710;2024-01-16T07:17:12;99522.75;;;0.82;71.91
40954;BME280;26686;50.130;8.710;2024-01-16T07:22:14;99530.03;;;0.77;72.46
40954;BME280;26686;50.130;8.710;2024-01-16T07:27:16;99522.31;;;0.74;71.71
40954;BME280;26686;50.130;8.710;2024-01-16T07:32:18;99536.34;;;0.73;72.32
40954;BME280;26686;50.130;8.710;2024-01-16T07:37:20;99534.19;;;0.63;71.68
40954;BME280;26686;50.130;8.710;2024-01-16T07:42:22;99546.72;;;0.74;72.09
40954;BME280;26686;50.130;8.710;2024-01-16T07:47:23;99540.88;;;0.69;71.68
40954;BME280;26686;50.130;8.710;2024-01-16T07:52:27;99559.69;;;0.77;71.67
40954;BME280;26686;50.130;8.710;2024-01-16T07:57:28;99548.53;;;0.74;71.65
40954;BME280;26686;50.130;8.710;2024-01-16T08:02:33;99564.09;;;0.77;71.23
40954;BME280;26686;50.130;8.710;2024-01-16T08:07:42;99539.63;;;0.76;71.38
40954;BME280;26686;50.130;8.710;2024-01-16T08:12:45;99550.34;;;0.89;71.20
40954;BME280;26686;50.130;8.710;2024-01-16T08:17:47;99554.34;;;0.96;71.28
40954;BME280;26686;50.130;8.710;2024-01-16T08:22:49;99557.94;;;1.11;70.88
40954;BME280;26686;50.130;8.710;2024-01-16T08:27:51;99564.19;;;1.09;69.98
40954;BME280;26686;50.130;8.710;2024-01-16T08:32:54;99554.13;;;1.17;69.82
40954;BME280;26686;50.130;8.710;2024-01-16T08:37:56;99568.03;;;1.01;70.15
40954;BME280;26686;50.130;8.710;2024-01-16T08:42:57;99565.25;;;1.04;69.91
40954;BME280;26686;50.130;8.710;2024-01-16T08:47:59;99579.25;;;1.21;70.25
40954;BME280;26686;50.130;8.710;2024-01-16T08:53:01;99579.81;;;1.44;70.89
40954;BME280;26686;50.130;8.710;2024-01-16T08:58:02;99574.75;;;1.40;68.85
40954;BME280;26686;50.130;8.710;2024-01-16T09:03:04;99576.34;;;1.43;68.87
40954;BME280;26686;50.130;8.710;2024-01-16T09:08:06;99578.28;;;1.39;68.94
40954;BME280;26686;50.130;8.710;2024-01-16T09:13:12;99576.28;;;1.45;68.96
40954;BME280;26686;50.130;8.710;2024-01-16T09:18:14;99569.81;;;1.34;68.99
40954;BME280;26686;50.130;8.710;2024-01-16T09:23:16;99577.53;;;1.37;68.95
40954;BME280;26686;50.130;8.710;2024-01-16T09:28:18;99580.75;;;1.42;69.06
40954;BME280;26686;50.130;8.710;2024-01-16T09:33:19;99594.22;;;1.52;68.95
40954;BME280;26686;50.130;8.710;2024-01-16T09:38:22;99601.84;;;1.57;68.71
40954;BME280;26686;50.130;8.710;2024-01-16T09:43:26;99607.09;;;1.57;68.19
40954;BME280;26686;50.130;8.710;2024-01-16T09:48:30;99595.06;;;1.37;68.85
40954;BME280;26686;50.130;8.710;2024-01-16T09:53:35;99613.00;;;1.45;68.68
40954;BME280;26686;50.130;8.710;2024-01-16T09:58:38;99612.78;;;1.65;68.38
40954;BME280;26686;50.130;8.710;2024-01-16T10:03:41;99625.22;;;1.93;67.57
40954;BME280;26686;50.130;8.710;2024-01-16T10:08:45;99606.88;;;1.77;66.54
40954;BME280;26686;50.130;8.710;2024-01-16T10:13:47;99620.91;;;1.76;67.94
40954;BME280;26686;50.130;8.710;2024-01-16T10:19:03;99618.63;;;1.70;67.71
40954;BME280;26686;50.130;8.710;2024-01-16T10:24:12;99615.84;;;1.73;68.01
40954;BME280;26686;50.130;8.710;2024-01-16T10:29:16;99596.97;;;1.67;67.18
40954;BME280;26686;50.130;8.710;2024-01-16T10:34:22;99602.53;;;1.76;67.69
40954;BME280;26686;50.130;8.710;2024-01-16T10:39:25;99582.56;;;1.58;67.58
40954;BME280;26686;50.130;8.710;2024-01-16T10:44:53;99585.78;;;1.63;68.42
40954;BME280;26686;50.130;8.710;2024-01-16T10:49:55;99592.88;;;1.61;67.95
40954;BME280;26686;50.130;8.710;2024-01-16T10:54:57;99577.16;;;1.61;67.80
40954;BME280;26686;50.130;8.710;2024-01-16T11:00:05;99583.94;;;1.65;67.58
40954;BME280;26686;50.130;8.710;2024-01-16T11:05:11;99571.38;;;1.70;67.67
40954;BME280;26686;50.130;8.710;2024-01-16T11:10:13;99571.56;;;1.99;67.49
40954;BME280;26686;50.130;8.710;2024-01-16T11:15:15;99555.28;;;2.55;65.77
40954;BME280;26686;50.130;8.710;2024-01-16T11:20:17;99551.81;;;2.99;63.74
40954;BME280;26686;50.130;8.710;2024-01-16T11:25:40;99550.69;;;3.32;62.73
40954;BME280;26686;50.130;8.710;2024-01-16T11:30:42;99548.69;;;3.35;61.89
40954;BME280;26686;50.130;8.710;2024-01-16T11:35:46;99536.28;;;3.52;61.22
40954;BME280;26686;50.130;8.710;2024-01-16T11:40:50;99522.28;;;3.51;59.96
40954;BME280;26686;50.130;8.710;2024-01-16T11:45:51;99503.56;;;4.64;57.24
40954;BME280;26686;50.130;8.710;2024-01-16T11:50:53;99507.69;;;5.32;55.62
40954;BME280;26686;50.130;8.710;2024-01-16T11:56:10;99479.25;;;4.73;56.03
40954;BME280;26686;50.130;8.710;2024-01-16T12:01:19;99491.13;;;4.40;57.33
40954;BME280;26686;50.130;8.710;2024-01-16T12:06:22;99490.97;;;4.29;57.33
40954;BME280;26686;50.130;8.710;2024-01-16T12:11:25;99486.66;;;4.28;58.60
40954;BME280;26686;50.130;8.710;2024-01-16T12:16:41;99483.88;;;4.56;57.07
40954;BME280;26686;50.130;8.710;2024-01-16T12:21:44;99467.78;;;5.24;55.11
40954;BME280;26686;50.130;8.710;2024-01-16T12:26:46;99468.03;;;5.82;53.44
40954;BME280;26686;50.130;8.710;2024-01-16T12:31:47;99467.16;;;6.65;51.18
40954;BME280;26686;50.130;8.710;2024-01-16T12:37:04;99463.66;;;7.55;49.04
40954;BME280;26686;50.130;8.710;2024-01-16T12:42:09;99446.97;;;8.62;46.12
40954;BME280;26686;50.130;8.710;2024-01-16T12:47:16;99439.91;;;9.63;43.79
40954;BME280;26686;50.130;8.710;2024-01-16T12:52:23;99426.38;;;10.15;41.82
40954;BME280;26686;50.130;8.710;2024-01-16T12:57:27;99427.19;;;9.57;42.64
40954;BME280;26686;50.130;8.710;2024-01-16T13:02:29;99427.84;;;8.26;44.97
40954;BME280;26686;50.130;8.710;2024-01-16T13:07:32;99418.59;;;7.12;46.99
40954;BME280;26686;50.130;8.710;2024-01-16T13:12:34;99428.16;;;6.45;48.63
40954;BME280;26686;50.130;8.710;2024-01-16T13:17:37;99411.84;;;6.15;48.99
40954;BME280;26686;50.130;8.710;2024-01-16T13:22:41;99411.00;;;6.04;50.45
40954;BME280;26686;50.130;8.710;2024-01-16T13:27:48;99412.66;;;5.80;49.43
40954;BME280;26686;50.130;8.710;2024-01-16T13:32:49;99404.53;;;5.59;50.54
40954;BME280;26686;50.130;8.710;2024-01-16T13:37:51;99406.59;;;5.19;52.05
40954;BME280;26686;50.130;8.710;2024-01-16T13:42:53;99404.44;;;5.24;52.58
40954;BME280;26686;50.130;8.710;2024-01-16T13:47:56;99397.75;;;5.07;53.03
40954;BME280;26686;50.130;8.710;2024-01-16T13:53:02;99370.88;;;5.98;49.73
40954;BME280;26686;50.130;8.710;2024-01-16T13:58:04;99396.22;;;6.70;47.85
40954;BME280;26686;50.130;8.710;2024-01-16T14:03:05;99387.09;;;5.81;50.13
40954;BME280;26686;50.130;8.710;2024-01-16T14:08:08;99387.88;;;5.35;51.30
40954;BME280;26686;50.130;8.710;2024-01-16T14:13:13;99385.81;;;5.14;51.90
40954;BME280;26686;50.130;8.710;2024-01-16T14:18:14;99380.88;;;4.96;52.38
40954;BME280;26686;50.130;8.710;2024-01-16T14:23:16;99394.66;;;4.76;52.60
40954;BME280;26686;50.130;8.710;2024-01-16T14:28:18;99355.66;;;4.42;52.57
40954;BME280;26686;50.130;8.710;2024-01-16T14:33:30;99394.78;;;4.36;53.71
40954;BME280;26686;50.130;8.710;2024-01-16T14:38:31;99405.09;;;4.13;53.52
40954;BME280;26686;50.130;8.710;2024-01-16T14:43:33;99405.41;;;4.34;53.90
40954;BME280;26686;50.130;8.710;2024-01-16T14:48:37;99404.25;;;4.51;53.47
40954;BME280;26686;50.130;8.710;2024-01-16T14:53:39;99396.34;;;4.64;53.33
40954;BME280;26686;50.130;8.710;2024-01-16T14:58:41;99395.81;;;4.72;52.76
40954;BME280;26686;50.130;8.710;2024-01-16T15:03:42;99386.44;;;4.42;52.97
40954;BME280;26686;50.130;8.710;2024-01-16T15:08:44;99374.66;;;4.22;53.65
40954;BME280;26686;50.130;8.710;2024-01-16T15:13:45;99376.75;;;4.04;54.05
40954;BME280;26686;50.130;8.710;2024-01-16T15:18:47;99391.66;;;3.91;54.32
40954;BME280;26686;50.130;8.710;2024-01-16T15:23:49;99352.72;;;3.56;54.89
40954;BME280;26686;50.130;8.710;2024-01-16T15:28:53;99375.66;;;3.53;55.27
40954;BME280;26686;50.130;8.710;2024-01-16T15:33:55;99395.00;;;3.25;56.11
40954;BME280;26686;50.130;8.710;2024-01-16T15:38:56;99388.19;;;3.08;56.51
40954;BME280;26686;50.130;8.710;2024-01-16T15:43:58;99374.25;;;2.93;56.96
40954;BME280;26686;50.130;8.710;2024-01-16T15:49:11;99384.16;;;3.03;57.35
40954;BME280;26686;50.130;8.710;2024-01-16T15:54:12;99375.06;;;2.94;57.97
40954;BME280;26686;50.130;8.710;2024-01-16T15:59:14;99374.81;;;2.84;58.02
40954;BME280;26686;50.130;8.710;2024-01-16T16:04:16;99381.69;;;2.72;58.00
40954;BME280;26686;50.130;8.710;2024-01-16T16:09:18;99390.50;;;2.71;57.82
40954;BME280;26686;50.130;8.710;2024-01-16T16:14:20;99385.63;;;2.65;58.26
40954;BME280;26686;50.130;8.710;2024-01-16T16:19:22;99381.47;;;2.75;58.59
40954;BME280;26686;50.130;8.710;2024-01-16T16:24:24;99366.16;;;2.82;58.16
40954;BME280;26686;50.130;8.710;2024-01-16T16:29:25;99364.41;;;2.82;58.41
40954;BME280;26686;50.130;8.710;2024-01-16T16:34:28;99372.94;;;2.86;57.63
40954;BME280;26686;50.130;8.710;2024-01-16T16:39:31;99366.94;;;2.84;57.61
40954;BME280;26686;50.130;8.710;2024-01-16T16:44:32;99388.88;;;2.69;57.92
40954;BME280;26686;50.130;8.710;2024-01-16T16:49:34;99394.53;;;2.62;57.91
40954;BME280;26686;50.130;8.710;2024-01-16T16:54:36;99398.66;;;2.67;58.17
40954;BME280;26686;50.130;8.710;2024-01-16T16:59:40;99391.34;;;2.57;58.01
40954;BME280;26686;50.130;8.710;2024-01-16T17:04:42;99400.63;;;2.48;58.42
40954;BME280;26686;50.130;8.710;2024-01-16T17:09:44;99387.69;;;2.45;58.40
40954;BME280;26686;50.130;8.710;2024-01-16T17:14:46;99387.13;;;2.40;58.14
40954;BME280;26686;50.130;8.710;2024-01-16T17:19:47;99402.66;;;2.29;58.89
40954;BME280;26686;50.130;8.710;2024-01-16T17:24:50;99392.56;;;2.37;58.78
40954;BME280;26686;50.130;8.710;2024-01-16T17:29:52;99382.78;;;2.25;58.44
40954;BME280;26686;50.130;8.710;2024-01-16T17:34:53;99387.09;;;2.26;58.33
40954;BME280;26686;50.130;8.710;2024-01-16T17:39:55;99367.38;;;2.19;58.65
40954;BME280;26686;50.130;8.710;2024-01-16T17:44:57;99363.34;;;2.13;58.80
40954;BME280;26686;50.130;8.710;2024-01-16T17:50:05;99357.16;;;2.14;59.17
40954;BME280;26686;50.130;8.710;2024-01-16T17:55:10;99351.03;;;1.99;58.88
40954;BME280;26686;50.130;8.710;2024-01-16T18:00:16;99370.75;;;2.06;59.19
40954;BME280;26686;50.130;8.710;2024-01-16T18:05:18;99363.97;;;1.88;59.57
40954;BME280;26686;50.130;8.710;2024-01-16T18:10:20;99356.84;;;1.90;59.49
40954;BME280;26686;50.130;8.710;2024-01-16T18:15:22;99340.25;;;1.89;60.11
40954;BME280;26686;50.130;8.710;2024-01-16T18:20:25;99335.09;;;1.88;61.53
40954;BME280;26686;50.130;8.710;2024-01-16T18:25:32;99351.03;;;1.99;59.98
40954;BME280;26686;50.130;8.710;2024-01-16T18:30:35;99337.13;;;1.83;59.64
40954;BME280;26686;50.130;8.710;2024-01-16T18:35:37;99323.19;;;1.97;60.47
40954;BME280;26686;50.130;8.710;2024-01-16T18:40:40;99312.97;;;1.92;60.08
40954;BME280;26686;50.130;8.710;2024-01-16T18:45:43;99309.41;;;1.93;59.88
40954;BME280;26686;50.130;8.710;2024-01-16T18:50:46;99296.09;;;1.96;59.87
40954;BME280;26686;50.130;8.710;2024-01-16T18:55:52;99299.38;;;2.00;59.87
40954;BME280;26686;50.130;8.710;2024-01-16T19:00:54;99289.25;;;1.93;59.70
40954;BME280;26686;50.130;8.710;2024-01-16T19:06:00;99284.09;;;1.92;60.53
40954;BME280;26686;50.130;8.710;2024-01-16T19:11:03;99290.94;;;1.94;60.17
40954;BME280;26686;50.130;8.710;2024-01-16T19:16:05;99291.78;;;1.95;60.02
40954;BME280;26686;50.130;8.710;2024-01-16T19:21:10;99288.50;;;1.91;60.06
40954;BME280;26686;50.130;8.710;2024-01-16T19:26:11;99279.53;;;1.96;60.43
40954;BME280;26686;50.130;8.710;2024-01-16T19:31:13;99269.13;;;1.94;60.20
40954;BME280;26686;50.130;8.710;2024-01-16T19:36:15;99267.06;;;1.99;60.81
40954;BME280;26686;50.130;8.710;2024-01-16T19:41:16;99272.50;;;1.96;60.49
40954;BME280;26686;50.130;8.710;2024-01-16T19:46:21;99253.56;;;1.91;60.51
40954;BME280;26686;50.130;8.710;2024-01-16T19:51:24;99255.91;;;1.96;61.33
40954;BME280;26686;50.130;8.710;2024-01-16T19:56:31;99235.38;;;1.88;59.96
40954;BME280;26686;50.130;8.710;2024-01-16T20:01:33;99234.72;;;1.99;61.09
40954;BME280;26686;50.130;8.710;2024-01-16T20:06:34;99235.44;;;2.01;61.28
40954;BME280;26686;50.130;8.710;2024-01-16T20:11:36;99233.84;;;1.98;60.88
40954;BME280;26686;50.130;8.710;2024-01-16T20:16:38;99230.50;;;1.96;60.72
40954;BME280;26686;50.130;8.710;2024-01-16T20:21:41;99230.09;;;2.02;61.04
40954;BME280;26686;50.130;8.710;2024-01-16T20:26:45;99228.44;;;2.01;61.20
40954;BME280;26686;50.130;8.710;2024-01-16T20:31:46;99210.22;;;1.98;60.70
40954;BME280;26686;50.130;8.710;2024-01-16T20:36:48;99208.38;;;1.86;60.16
40954;BME280;26686;50.130;8.710;2024-01-16T20:41:56;99210.81;;;1.89;61.18
40954;BME280;26686;50.130;8.710;2024-01-16T20:46:59;99212.03;;;1.83;61.12
40954;BME280;26686;50.130;8.710;2024-01-16T20:52:03;99214.19;;;1.91;61.65
40954;BME280;26686;50.130;8.710;2024-01-16T20:57:05;99211.56;;;1.91;61.14
40954;BME280;26686;50.130;8.710;2024-01-16T21:02:07;99220.38;;;1.90;60.88
40954;BME280;26686;50.130;8.710;2024-01-16T21:07:09;99211.66;;;1.75;60.47
40954;BME280;26686;50.130;8.710;2024-01-16T21:12:10;99201.03;;;1.62;61.30
40954;BME280;26686;50.130;8.710;2024-01-16T21:17:14;99194.31;;;1.58;61.38
40954;BME280;26686;50.130;8.710;2024-01-16T21:22:15;99193.84;;;1.66;61.41
40954;BME280;26686;50.130;8.710;2024-01-16T21:27:30;99199.66;;;1.71;61.71
40954;BME280;26686;50.130;8.710;2024-01-16T21:32:33;99192.44;;;1.74;61.57
40954;BME280;26686;50.130;8.710;2024-01-16T21:37:36;99173.22;;;1.74;61.47
40954;BME280;26686;50.130;8.710;2024-01-16T21:42:38;99165.25;;;1.75;61.31
40954;BME280;26686;50.130;8.710;2024-01-16T21:47:40;99170.69;;;1.72;60.94
40954;BME280;26686;50.130;8.710;2024-01-16T21:52:43;99143.59;;;1.57;61.30
40954;BME280;26686;50.130;8.710;2024-01-16T21:57:45;99152.97;;;1.62;61.13
40954;BME280;26686;50.130;8.710;2024-01-16T22:02:49;99147.00;;;1.59;61.16
40954;BME280;26686;50.130;8.710;2024-01-16T22:07:58;99142.13;;;1.53;60.82
40954;BME280;26686;50.130;8.710;2024-01-16T22:13:01;99131.63;;;1.53;61.28
40954;BME280;26686;50.130;8.710;2024-01-16T22:18:03;99126.50;;;1.52;61.12
40954;BME280;26686;50.130;8.710;2024-01-16T22:23:05;99126.28;;;1.40;60.97
40954;BME280;26686;50.130;8.710;2024-01-16T22:28:07;99122.44;;;1.46;61.66
40954;BME280;26686;50.130;8.710;2024-01-16T22:33:10;99115.22;;;1.50;61.33
40954;BME280;26686;50.130;8.710;2024-01-16T22:38:13;99109.63;;;1.41;61.01
40954;BME280;26686;50.130;8.710;2024-01-16T22:43:15;99097.81;;;1.34;60.37
40954;BME280;26686;50.130;8.710;2024-01-16T22:48:16;99101.56;;;1.30;61.42
40954;BME280;26686;50.130;8.710;2024-01-16T22:53:18;99097.81;;;1.34;61.95
40954;BME280;26686;50.130;8.710;2024-01-16T22:58:20;99083.69;;;1.37;61.84
40954;BME280;26686;50.130;8.710;2024-01-16T23:03:23;99079.84;;;1.28;61.53
40954;BME280;26686;50.130;8.710;2024-01-16T23:08:25;99081.25;;;1.34;61.08
40954;BME280;26686;50.130;8.710;2024-01-16T23:13:26;99062.41;;;1.27;60.85
40954;BME280;26686;50.130;8.710;2024-01-16T23:18:28;99061.50;;;1.28;61.19
40954;BME280;26686;50.130;8.710;2024-01-16T23:23:31;99048.84;;;1.20;61.18
40954;BME280;26686;50.130;8.710;2024-01-16T23:28:33;99034.16;;;1.18;61.13
40954;BME280;26686;50.130;8.710;2024-01-16T23:33:34;99009.81;;;1.16;61.51
40954;BME280;26686;50.130;8.710;2024-01-16T23:38:36;99003.63;;;1.17;61.41
40954;BME280;26686;50.130;8.710;2024-01-16T23:43:40;98997.00;;;1.11;61.37
40954;BME280;26686;50.130;8.710;2024-01-16T23:48:44;98989.22;;;0.95;61.35
40954;BME280;26686;50.130;8.710;2024-01-16T23:53:46;98985.44;;;0.70;61.64
40954;BME280;26686;50.130;8.710;2024-01-16T23:58:49;98975.44;;;0.63;62.44
